Aérodrome :
LOGIN :

S'inscrire | Disclaimer

   EN    FR    IT 

 










Légende :    VFR   VFR Marginal   IFR   IFR Intensif   IFR Très Intensif
Visi : 
Plafond : 
>= 8 km
>= 3000ft
5 à 8 km
1000 à 3000 ft
1500m à 5 km
500 à 1000 ft
800 à 1500m
200 à 500 ft
< 800m
< 200 ft
Symboles :   Orages  Brouillard  Fortes neiges  Fortes précipitations  Vent > 20 kt
SIGMETs :   Divers  Orages  Givrage  Turbulence  Onde Orograph.  Cendres Volcan.







- Altitude de l'aérodrome : 7 ft
- Code IATA : XHE
- Voir les cartes d'approche


LFTH - Hyeres

DERNIER METAR :
  • 250430Z AUTO VRB02KT 5000 BR OVC009 14/14 Q1017 BECMG NSC

METARs EXPIRÉS :
  • 250400Z AUTO 00000KT 5000 BR OVC007 14/14 Q1017 NOSIG
  • 250330Z AUTO VRB02KT 6000 OVC007 14/13 Q1017 TEMPO 3000 BR
  • 250300Z AUTO VRB02KT 5000 BR OVC007 13/12 Q1017 NOSIG
  • 250230Z AUTO 01002KT 5000 BR BKN005 12/12 Q1017 TEMPO 0800 FG
  • 250200Z AUTO VRB02KT 4700 0400 R05/P3600 BCFG FEW006 11/11 Q1017 TEMPO 0800 FG BKN008
  • 250130Z AUTO 02003KT 2800 BR NSC 12/11 Q1017 TEMPO 0800 FG BKN008

TAF TAF LFTH
Valide du 25 à 03h jusqu'au 26 à 03h UTC


250200Z 2503/2603 VRB02KT CAVOK
TEMPO 2503/2506 3000 BR BKN008
BECMG 2508/2510 22012KT BKN010
BECMG 2510/2512 FEW010
Pas de NOTAMs connus pour ce terrain.



MET'MAP, la Météo Aéronautique d'un coup d'oeil ! - Copyright ORBIFLY Décembre 2007 - Disclaimer

ORBIFLY MET'MAP TEAM :

Programmation & Développement : Alexandra Zaïnal
Conception & Développement : Baudouin d'Aumeries
Co-Programmation & Développement : Marc-Olivier Méhu
Soutien technique & logistique : Manuel Goepfert

Contact : metmap@orbifly.com




SOURCES & CREDITS :

   NOAA